Time;durP1;ratioP1;P1;durP2;ratioP2;P2;SDS_P1;SDS_P2;PMS_P1;PMS_P2;Temp;Humidity;BMP_temperature;BMP_pressure;BME280_temperature;BME280_humidity;BME280_pressure;Samples;Min_cycle;Max_cycle;Signal;HPM_P1;HPM_P2
2021/04/23 00:02:18;;;;;;;13.02;4.88;;;3.20;99.90;;;;;;5086632;28;20036;-80
2021/04/23 00:04:43;;;;;;;12.32;4.82;;;3.20;99.90;;;;;;5053216;28;20370;-79
2021/04/23 00:07:10;;;;;;;12.68;5.28;;;3.20;99.90;;;;;;5052516;28;20064;-80
2021/04/23 00:09:36;;;;;;;13.95;5.28;;;3.20;99.90;;;;;;5071390;28;20079;-77
2021/04/23 00:12:09;;;;;;;12.88;5.25;;;3.20;99.90;;;;;;5053720;28;20036;-80
2021/04/23 00:14:49;;;;;;;9.82;5.00;;;3.30;99.90;;;;;;5070592;28;20036;-77
2021/04/23 00:17:16;;;;;;;11.32;5.05;;;3.30;99.90;;;;;;5089304;28;20052;-79
2021/04/23 00:19:44;;;;;;;13.07;5.50;;;3.30;99.90;;;;;;5056922;28;20612;-81
2021/04/23 00:22:12;;;;;;;12.00;5.22;;;3.20;99.90;;;;;;5089456;28;20048;-76
2021/04/23 00:24:38;;;;;;;11.77;5.03;;;3.10;99.90;;;;;;5055941;28;20441;-77
2021/04/23 00:27:06;;;;;;;9.20;5.30;;;3.10;99.90;;;;;;5074076;28;20051;-83
2021/04/23 00:29:33;;;;;;;15.13;5.55;;;3.10;99.90;;;;;;5073549;28;20049;-81
2021/04/23 00:31:59;;;;;;;12.45;5.10;;;3.10;99.90;;;;;;5074599;28;20077;-79
2021/04/23 00:34:25;;;;;;;9.93;4.82;;;3.10;99.90;;;;;;5073396;28;20210;-79
2021/04/23 00:36:51;;;;;;;8.15;4.57;;;3.10;99.90;;;;;;5073747;28;20044;-81
2021/04/23 00:39:17;;;;;;;14.90;5.82;;;3.10;99.90;;;;;;5073781;28;20359;-82
2021/04/23 00:41:45;;;;;;;9.93;5.35;;;2.80;99.90;;;;;;5055672;28;20488;-81
2021/04/23 00:44:11;;;;;;;11.02;5.15;;;3.10;99.90;;;;;;5073502;28;20111;-79
2021/04/23 00:46:38;;;;;;;11.48;5.93;;;3.10;99.90;;;;;;5054566;28;20544;-80
2021/04/23 00:49:05;;;;;;;12.23;5.07;;;3.00;99.90;;;;;;5056191;28;20115;-83
2021/04/23 00:51:43;;;;;;;12.20;5.13;;;3.10;99.90;;;;;;5088280;28;20044;-78
2021/04/23 00:54:10;;;;;;;14.63;5.18;;;2.90;99.90;;;;;;5073808;28;20036;-80
2021/04/23 00:56:39;;;;;;;11.43;4.65;;;2.90;99.90;;;;;;5054537;28;20040;-77
2021/04/23 00:59:07;;;;;;;10.23;5.40;;;2.80;99.90;;;;;;5073453;28;20033;-80
2021/04/23 01:01:39;;;;;;;11.23;5.15;;;2.80;99.90;;;;;;5072465;28;20037;-77
2021/04/23 01:04:13;;;;;;;13.68;5.43;;;3.70;99.90;;;;;;5073290;28;20108;-80
2021/04/23 01:06:39;;;;;;;10.00;5.07;;;2.80;99.90;;;;;;5072760;28;20062;-80
2021/04/23 01:09:12;;;;;;;13.93;5.00;;;2.80;99.90;;;;;;5072987;28;20033;-77
2021/04/23 01:11:38;;;;;;;11.45;4.85;;;2.30;99.90;;;;;;5072697;28;20037;-78
2021/04/23 01:14:05;;;;;;;7.95;4.60;;;2.80;99.90;;;;;;5055320;28;20082;-77
2021/04/23 01:16:31;;;;;;;10.45;4.78;;;2.80;99.90;;;;;;5054390;28;20045;-77
2021/04/23 01:18:58;;;;;;;10.40;4.97;;;2.80;99.90;;;;;;5073035;28;20040;-80
2021/04/23 01:21:27;;;;;;;16.45;4.53;;;2.90;99.90;;;;;;5073208;28;20055;-82
2021/04/23 01:23:55;;;;;;;9.80;4.85;;;3.40;99.90;;;;;;5072757;28;20043;-78
2021/04/23 01:26:24;;;;;;;9.48;4.68;;;3.60;99.90;;;;;;5054592;28;20045;-79
2021/04/23 01:28:53;;;;;;;13.73;4.97;;;2.80;99.90;;;;;;5072136;28;20060;-79
2021/04/23 01:31:22;;;;;;;10.43;5.47;;;2.80;99.90;;;;;;5055077;28;20474;-78
2021/04/23 01:33:56;;;;;;;12.07;4.85;;;2.80;99.90;;;;;;5070935;28;20060;-82
2021/04/23 01:36:22;;;;;;;16.58;5.15;;;2.80;99.90;;;;;;5072396;28;20036;-79
2021/04/23 01:38:49;;;;;;;12.82;4.97;;;2.80;99.90;;;;;;5054692;28;20041;-77
2021/04/23 01:41:15;;;;;;;12.93;4.60;;;2.80;99.90;;;;;;5072718;28;20048;-80
2021/04/23 01:43:43;;;;;;;13.43;4.35;;;2.80;99.90;;;;;;5072132;28;20203;-76
2021/04/23 01:46:09;;;;;;;10.38;4.55;;;2.70;99.90;;;;;;5071889;28;20032;-81
2021/04/23 01:48:36;;;;;;;9.48;3.95;;;2.70;99.90;;;;;;5054426;28;20057;-78
2021/04/23 01:51:05;;;;;;;12.70;5.13;;;2.70;99.90;;;;;;5072140;28;20040;-79
2021/04/23 01:53:32;;;;;;;8.25;4.15;;;2.60;99.90;;;;;;5071913;28;20041;-78
2021/04/23 01:55:58;;;;;;;7.75;4.15;;;2.70;99.90;;;;;;5071527;28;20060;-79
2021/04/23 01:58:24;;;;;;;13.90;4.97;;;2.70;99.90;;;;;;5054369;28;20175;-77
2021/04/23 02:00:51;;;;;;;;;;;2.60;99.90;;;;;;5072772;28;20444;-76
2021/04/23 02:03:19;;;;;;;10.18;4.28;;;2.60;99.90;;;;;;5058989;28;20007;-79
2021/04/23 02:05:47;;;;;;;13.68;4.95;;;2.60;99.90;;;;;;5071190;28;20072;-79
2021/04/23 02:08:16;;;;;;;11.27;5.05;;;2.60;99.90;;;;;;5071307;28;20405;-76
2021/04/23 02:10:46;;;;;;;12.73;4.78;;;2.70;99.90;;;;;;5076431;28;20048;-77
2021/04/23 02:13:14;;;;;;;13.25;4.25;;;2.80;99.90;;;;;;5036887;28;20119;-78
2021/04/23 02:15:40;;;;;;;10.68;3.95;;;2.80;99.90;;;;;;5086473;28;20036;-80
2021/04/23 02:18:06;;;;;;;16.38;4.28;;;2.80;99.90;;;;;;5051286;28;20485;-78
2021/04/23 02:20:36;;;;;;;9.25;4.07;;;2.80;99.90;;;;;;5046996;28;20054;-79
2021/04/23 02:23:05;;;;;;;8.98;3.95;;;2.80;99.90;;;;;;5071592;28;20148;-82
2021/04/23 02:25:32;;;;;;;12.45;4.70;;;2.80;99.90;;;;;;5048049;28;20032;-79
2021/04/23 02:27:58;;;;;;;9.30;4.43;;;2.80;99.90;;;;;;5065502;28;20099;-81
2021/04/23 02:30:44;;;;;;;9.82;4.93;;;2.70;99.90;;;;;;5069724;28;20040;-77
2021/04/23 02:33:14;;;;;;;9.95;4.30;;;2.70;99.90;;;;;;5053433;28;20036;-80
2021/04/23 02:35:41;;;;;;;10.20;4.95;;;2.60;99.90;;;;;;5053144;28;20434;-79
2021/04/23 02:38:08;;;;;;;7.75;4.63;;;2.60;99.90;;;;;;5036680;28;20052;-79
2021/04/23 02:40:35;;;;;;;12.13;4.90;;;2.60;99.90;;;;;;5060368;28;20407;-81
2021/04/23 02:43:06;;;;;;;14.77;4.75;;;2.60;99.90;;;;;;5070777;28;20116;-77
2021/04/23 02:45:35;;;;;;;8.48;3.95;;;2.60;99.90;;;;;;5071710;28;20114;-79
2021/04/23 02:48:02;;;;;;;13.07;4.68;;;2.50;99.90;;;;;;5071393;28;20527;-76
2021/04/23 02:50:30;;;;;;;12.43;4.28;;;2.60;99.90;;;;;;5086221;28;20492;-80
2021/04/23 02:52:57;;;;;;;9.23;4.38;;;2.60;99.90;;;;;;5034388;28;20037;-77
2021/04/23 02:55:24;;;;;;;10.40;4.40;;;2.70;99.90;;;;;;5070974;28;20406;-80
2021/04/23 02:58:14;;;;;;;8.88;4.35;;;2.70;99.90;;;;;;5070830;28;20040;-79
2021/04/23 03:00:43;;;;;;;13.35;4.70;;;2.60;99.90;;;;;;5070776;28;20036;-78
2021/04/23 03:03:10;;;;;;;11.57;4.85;;;2.60;99.90;;;;;;5071153;28;20048;-78
2021/04/23 03:05:38;;;;;;;9.27;4.00;;;2.60;99.90;;;;;;5067908;28;20037;-78
2021/04/23 03:08:05;;;;;;;8.80;4.03;;;2.60;99.90;;;;;;5070584;28;20028;-76
2021/04/23 03:10:36;;;;;;;11.52;4.00;;;2.70;99.90;;;;;;5065001;28;20242;-81
2021/04/23 03:13:20;;;;;;;7.57;4.00;;;2.80;99.90;;;;;;5053625;28;20044;-78
2021/04/23 03:15:47;;;;;;;9.23;4.35;;;2.80;99.90;;;;;;5051992;28;20119;-77
2021/04/23 03:18:16;;;;;;;12.05;4.78;;;2.80;99.90;;;;;;5070607;28;20110;-79
2021/04/23 03:20:42;;;;;;;10.85;5.25;;;2.80;99.90;;;;;;5069921;28;20485;-78
2021/04/23 03:23:08;;;;;;;;;;;2.70;99.90;;;;;;5071410;28;20044;-77
2021/04/23 03:25:35;;;;;;;11.68;4.38;;;2.60;99.90;;;;;;5043797;28;19916;-81
2021/04/23 03:28:01;;;;;;;9.15;4.80;;;2.60;99.90;;;;;;5046631;28;20509;-79
2021/04/23 03:30:32;;;;;;;12.43;4.60;;;2.50;99.90;;;;;;5068983;28;20032;-78
2021/04/23 03:32:58;;;;;;;8.52;4.35;;;2.50;99.90;;;;;;5068516;28;20025;-82
2021/04/23 03:35:26;;;;;;;7.63;4.30;;;2.40;99.90;;;;;;5072229;28;20056;-80
2021/04/23 03:37:52;;;;;;;11.52;4.57;;;2.50;99.90;;;;;;5074995;28;20397;-79
2021/04/23 03:40:21;;;;;;;12.07;4.35;;;2.40;99.90;;;;;;5070177;28;20040;-80
2021/04/23 03:42:48;;;;;;;13.02;4.78;;;2.40;99.90;;;;;;5063206;28;20112;-80
2021/04/23 03:45:17;;;;;;;12.77;4.47;;;2.40;99.90;;;;;;5035687;28;20025;-81
2021/04/23 03:47:43;;;;;;;13.20;5.10;;;2.40;99.90;;;;;;5069443;28;20068;-80
2021/04/23 03:50:11;;;;;;;9.55;4.28;;;2.50;99.90;;;;;;5086422;28;20371;-80
2021/04/23 03:52:37;;;;;;;12.55;5.05;;;2.50;99.90;;;;;;5033291;28;20054;-79
2021/04/23 03:55:06;;;;;;;11.60;4.60;;;2.60;99.90;;;;;;5055747;28;20113;-79
2021/04/23 03:57:32;;;;;;;10.85;4.88;;;2.50;99.90;;;;;;5074005;28;20091;-78
2021/04/23 03:59:59;;;;;;;10.50;4.50;;;3.60;99.90;;;;;;5073629;28;20060;-77
2021/04/23 04:02:25;;;;;;;10.07;4.43;;;2.40;99.90;;;;;;5056695;28;20426;-81
2021/04/23 04:04:51;;;;;;;9.93;4.88;;;2.30;99.90;;;;;;5055648;28;20115;-77
2021/04/23 04:07:17;;;;;;;9.05;3.67;;;2.40;99.90;;;;;;5056665;28;20067;-78
2021/04/23 04:09:43;;;;;;;10.95;4.72;;;2.40;99.90;;;;;;5038930;28;20096;-79
2021/04/23 04:12:09;;;;;;;12.45;4.82;;;2.40;99.90;;;;;;5058141;28;20041;-81
2021/04/23 04:14:35;;;;;;;9.60;4.57;;;2.40;99.90;;;;;;5072446;28;20040;-78
2021/04/23 04:17:01;;;;;;;9.65;4.68;;;2.40;99.90;;;;;;5068508;28;20158;-78
2021/04/23 04:19:27;;;;;;;7.88;4.13;;;2.40;99.90;;;;;;5072529;28;20055;-78
2021/04/23 04:21:53;;;;;;;9.07;4.80;;;2.40;99.90;;;;;;5032152;28;20029;-78
2021/04/23 04:24:19;;;;;;;15.82;4.80;;;2.50;99.90;;;;;;5047963;28;20029;-80
2021/04/23 04:26:45;;;;;;;11.38;5.05;;;2.40;99.90;;;;;;5068842;28;20343;-79
2021/04/23 04:29:12;;;;;;;9.48;5.13;;;2.40;99.90;;;;;;5074201;28;20040;-78
2021/04/23 04:31:38;;;;;;;15.63;4.90;;;2.30;99.90;;;;;;5067029;28;20071;-79
2021/04/23 04:34:04;;;;;;;7.97;5.05;;;2.40;99.90;;;;;;5036497;28;20065;-78
2021/04/23 04:36:30;;;;;;;8.98;4.43;;;2.30;99.90;;;;;;5072926;28;20041;-78
2021/04/23 04:38:59;;;;;;;10.77;5.05;;;2.30;99.90;;;;;;5067968;28;20048;-78
2021/04/23 04:41:25;;;;;;;12.35;4.55;;;2.40;99.90;;;;;;5074204;28;20036;-82
2021/04/23 04:43:51;;;;;;;10.32;4.78;;;2.40;99.90;;;;;;5086541;28;20032;-80
2021/04/23 04:46:17;;;;;;;11.27;5.03;;;2.40;99.90;;;;;;5074128;28;20464;-79
2021/04/23 04:48:42;;;;;;;13.85;4.90;;;2.40;99.90;;;;;;5049133;28;20048;-79
2021/04/23 04:51:09;;;;;;;8.95;4.82;;;2.40;99.90;;;;;;5051711;28;20410;-80
2021/04/23 04:53:35;;;;;;;;;;;2.50;99.90;;;;;;5064943;28;20366;-80
2021/04/23 04:56:01;;;;;;;12.20;5.03;;;2.40;99.90;;;;;;5050348;28;19921;-80
2021/04/23 04:58:30;;;;;;;13.98;4.80;;;2.40;99.90;;;;;;5048232;28;20029;-82
2021/04/23 05:00:58;;;;;;;17.15;4.95;;;2.40;99.90;;;;;;5086622;28;20044;-78
2021/04/23 05:03:24;;;;;;;10.63;4.72;;;2.40;99.90;;;;;;5067183;28;20028;-76
2021/04/23 05:05:50;;;;;;;;;;;2.50;99.90;;;;;;5072254;28;20043;-81
2021/04/23 05:08:16;;;;;;;10.27;4.82;;;2.50;99.90;;;;;;5068956;28;20007;-76
2021/04/23 05:10:42;;;;;;;11.27;4.30;;;2.50;99.90;;;;;;5069901;28;20524;-78
2021/04/23 05:13:08;;;;;;;12.48;5.32;;;2.60;99.90;;;;;;5049481;28;20041;-80
2021/04/23 05:15:35;;;;;;;8.48;4.68;;;2.60;99.90;;;;;;5064818;28;20037;-80
2021/04/23 05:18:05;;;;;;;10.93;5.07;;;2.70;99.90;;;;;;5053869;28;20055;-77
2021/04/23 05:20:32;;;;;;;11.20;5.28;;;2.80;99.90;;;;;;5073303;28;20036;-79
2021/04/23 05:22:58;;;;;;;8.68;5.60;;;2.90;99.90;;;;;;5055993;28;20116;-76
2021/04/23 05:25:26;;;;;;;11.43;5.50;;;3.20;99.90;;;;;;5072834;28;20087;-78
2021/04/23 05:27:53;;;;;;;8.73;5.00;;;3.10;99.90;;;;;;5073035;28;20048;-78
2021/04/23 05:30:22;;;;;;;12.93;4.88;;;3.20;99.90;;;;;;5056286;28;20036;-79
2021/04/23 05:32:48;;;;;;;11.80;4.93;;;3.20;99.90;;;;;;5074218;28;20047;-78
2021/04/23 05:35:17;;;;;;;10.15;5.07;;;3.20;99.90;;;;;;5072951;28;20090;-80
2021/04/23 05:37:43;;;;;;;10.80;4.97;;;3.30;99.90;;;;;;5054368;28;20040;-81
2021/04/23 05:40:20;;;;;;;13.35;5.88;;;3.40;99.90;;;;;;5038576;28;20037;-80
2021/04/23 05:42:46;;;;;;;11.15;5.45;;;3.50;99.90;;;;;;5069298;28;20040;-76
2021/04/23 05:45:13;;;;;;;11.32;4.95;;;3.80;99.90;;;;;;5055036;28;20117;-79
2021/04/23 05:47:40;;;;;;;13.07;4.72;;;3.90;99.90;;;;;;5072229;28;20461;-78
2021/04/23 05:50:08;;;;;;;10.10;5.18;;;4.00;99.90;;;;;;5055034;28;20143;-78
2021/04/23 05:52:34;;;;;;;7.78;4.88;;;4.00;99.90;;;;;;5054642;28;20059;-80
2021/04/23 05:54:59;;;;;;;11.05;4.70;;;4.10;99.90;;;;;;5070429;28;20143;-81
2021/04/23 05:57:25;;;;;;;9.30;4.70;;;4.20;99.90;;;;;;5072467;28;20161;-77
2021/04/23 05:59:51;;;;;;;11.75;5.07;;;4.30;99.90;;;;;;5072314;28;20136;-81
2021/04/23 06:02:17;;;;;;;10.50;5.00;;;4.40;99.90;;;;;;5052403;28;20030;-79
2021/04/23 06:04:43;;;;;;;9.88;4.75;;;4.50;99.90;;;;;;5054049;28;20114;-79
2021/04/23 06:07:10;;;;;;;9.10;5.15;;;4.80;99.90;;;;;;5050773;28;20040;-77
2021/04/23 06:09:36;;;;;;;9.25;5.13;;;5.00;99.90;;;;;;5086572;28;20051;-77
2021/04/23 06:12:02;;;;;;;10.07;5.18;;;5.10;99.90;;;;;;5050189;28;20112;-78
2021/04/23 06:14:28;;;;;;;7.70;4.25;;;5.20;99.90;;;;;;5070302;28;20527;-75
2021/04/23 06:16:56;;;;;;;10.82;4.93;;;5.20;99.90;;;;;;5071508;28;20063;-74
2021/04/23 06:19:22;;;;;;;10.77;4.90;;;5.20;99.90;;;;;;5053125;28;20057;-75
2021/04/23 06:21:48;;;;;;;13.32;5.32;;;5.30;99.90;;;;;;5085901;28;20134;-79
2021/04/23 06:24:14;;;;;;;12.43;5.20;;;5.40;99.90;;;;;;5070363;28;20070;-78
2021/04/23 06:26:40;;;;;;;;;;;5.60;99.90;;;;;;5071162;28;20044;-77
2021/04/23 06:29:05;;;;;;;10.70;5.03;;;5.70;99.90;;;;;;5086792;28;20257;-76
2021/04/23 06:31:32;;;;;;;10.95;5.07;;;5.80;99.90;;;;;;5087290;28;20135;-76
2021/04/23 06:33:57;;;;;;;10.10;5.35;;;5.90;99.90;;;;;;5070547;28;20032;-75
2021/04/23 06:36:23;;;;;;;14.88;6.32;;;5.90;99.90;;;;;;5087063;28;20033;-76
2021/04/23 06:38:50;;;;;;;12.43;4.95;;;6.00;99.90;;;;;;5052403;28;20455;-80
2021/04/23 06:41:16;;;;;;;9.73;4.70;;;5.90;99.90;;;;;;5070678;28;20059;-77
2021/04/23 06:43:43;;;;;;;;;;;6.10;99.90;;;;;;5071053;28;20048;-79
2021/04/23 06:46:11;;;;;;;10.55;5.22;;;6.20;99.90;;;;;;5073284;28;19917;-79
2021/04/23 06:48:37;;;;;;;11.32;5.75;;;6.30;99.90;;;;;;5083295;28;20041;-76
2021/04/23 06:51:04;;;;;;;;;;;6.50;99.90;;;;;;5066810;28;20419;-79
2021/04/23 06:53:31;;;;;;;11.25;4.90;;;6.50;99.90;;;;;;5070514;28;19916;-78
2021/04/23 06:55:58;;;;;;;9.90;5.15;;;6.50;99.90;;;;;;5052949;28;20028;-77
2021/04/23 06:58:24;;;;;;;10.38;5.82;;;6.50;99.90;;;;;;5070769;28;20036;-75
2021/04/23 07:00:49;;;;;;;13.13;4.97;;;6.50;99.90;;;;;;5069758;28;20119;-80
2021/04/23 07:03:15;;;;;;;9.73;5.28;;;6.60;99.90;;;;;;5053674;28;20041;-77
2021/04/23 07:05:43;;;;;;;12.00;6.50;;;6.70;99.90;;;;;;5086189;28;20045;-77
2021/04/23 07:08:11;;;;;;;9.85;5.88;;;6.80;99.90;;;;;;5053913;28;20036;-80
2021/04/23 07:10:37;;;;;;;11.15;4.97;;;6.90;99.90;;;;;;5054898;28;20044;-79
2021/04/23 07:13:05;;;;;;;10.10;5.05;;;7.10;99.90;;;;;;5073012;28;20039;-78
2021/04/23 07:15:36;;;;;;;9.73;5.53;;;7.20;99.90;;;;;;5076845;28;20036;-83
2021/04/23 07:18:02;;;;;;;14.00;5.68;;;7.30;99.90;;;;;;5035114;28;20060;-82
2021/04/23 07:20:29;;;;;;;15.93;5.72;;;7.30;99.90;;;;;;5055847;28;20055;-79
2021/04/23 07:22:55;;;;;;;8.48;5.63;;;7.50;99.90;;;;;;5072578;28;20343;-75
2021/04/23 07:25:22;;;;;;;12.98;4.57;;;7.80;99.90;;;;;;5069088;28;20063;-79
2021/04/23 07:27:48;;;;;;;10.98;4.70;;;8.20;99.90;;;;;;5074276;28;20770;-79
2021/04/23 07:30:24;;;;;;;9.20;5.05;;;8.50;99.90;;;;;;5077020;28;20091;-79
2021/04/23 07:32:51;;;;;;;9.98;5.10;;;8.60;99.90;;;;;;5073284;28;20060;-78
2021/04/23 07:35:17;;;;;;;12.57;5.20;;;8.70;99.90;;;;;;5080115;28;20029;-82
2021/04/23 07:37:43;;;;;;;11.15;4.97;;;8.90;98.60;;;;;;5073046;28;20098;-80
2021/04/23 07:40:12;;;;;;;8.93;5.15;;;8.90;96.50;;;;;;5073887;28;20088;-82
2021/04/23 07:42:38;;;;;;;10.60;4.93;;;8.90;98.00;;;;;;5055841;28;20473;-80
2021/04/23 07:45:06;;;;;;;10.98;4.88;;;8.80;98.40;;;;;;5057816;28;20040;-80
2021/04/23 07:47:32;;;;;;;11.10;4.78;;;8.50;99.10;;;;;;5074933;28;20093;-77
2021/04/23 07:49:57;;;;;;;8.65;5.18;;;8.30;99.60;;;;;;5072348;28;20044;-77
2021/04/23 07:52:23;;;;;;;12.82;5.45;;;8.30;99.90;;;;;;5088681;28;20441;-77
2021/04/23 07:54:49;;;;;;;8.90;4.47;;;8.30;99.90;;;;;;5052909;28;20033;-76
2021/04/23 07:57:15;;;;;;;13.00;5.30;;;8.50;99.90;;;;;;5055956;28;20070;-78
2021/04/23 07:59:41;;;;;;;6.43;4.03;;;8.70;99.60;;;;;;5073951;28;20449;-77
2021/04/23 08:02:08;;;;;;;9.35;4.13;;;8.90;97.90;;;;;;5055394;28;20083;-77
2021/04/23 08:04:38;;;;;;;6.93;4.50;;;8.90;96.40;;;;;;5060380;28;20543;-77
2021/04/23 08:07:07;;;;;;;11.32;5.10;;;8.80;96.60;;;;;;5056095;28;20037;-77
2021/04/23 08:09:34;;;;;;;10.13;4.50;;;8.60;96.70;;;;;;5073007;28;20556;-78
2021/04/23 08:12:00;;;;;;;9.85;4.80;;;8.70;97.20;;;;;;5072804;28;20090;-77
2021/04/23 08:14:27;;;;;;;13.10;4.90;;;8.90;97.30;;;;;;5089718;28;20056;-77
2021/04/23 08:16:54;;;;;;;10.45;4.90;;;9.10;96.70;;;;;;5073500;28;20120;-77
2021/04/23 08:19:20;;;;;;;8.70;4.60;;;9.30;96.40;;;;;;5073557;28;20051;-78
2021/04/23 08:21:47;;;;;;;;;;;9.50;96.20;;;;;;5055296;28;20024;-76
2021/04/23 08:24:14;;;;;;;9.27;4.57;;;9.70;93.50;;;;;;5073623;28;19939;-78
2021/04/23 08:26:42;;;;;;;10.18;4.70;;;9.70;93.00;;;;;;5055473;28;20052;-77
2021/04/23 08:29:11;;;;;;;10.95;5.00;;;9.70;92.70;;;;;;5035709;28;20128;-77
2021/04/23 08:31:42;;;;;;;8.18;4.28;;;9.70;91.40;;;;;;5070180;28;20040;-76
2021/04/23 08:34:08;;;;;;;13.77;5.72;;;9.60;91.30;;;;;;5055145;28;20055;-78
2021/04/23 08:36:34;;;;;;;11.40;4.68;;;9.70;91.40;;;;;;5073201;28;20156;-77
2021/04/23 08:39:00;;;;;;;;;;;9.90;91.20;;;;;;5055031;28;20064;-79
2021/04/23 08:41:26;;;;;;;11.27;4.95;;;10.00;90.20;;;;;;5071018;28;20369;-75
2021/04/23 08:43:52;;;;;;;8.90;4.40;;;9.70;90.30;;;;;;5038659;28;20044;-75
2021/04/23 08:46:18;;;;;;;10.18;5.32;;;9.50;91.20;;;;;;5055479;28;20123;-77
2021/04/23 08:48:45;;;;;;;9.73;4.20;;;9.40;91.80;;;;;;5038391;28;20032;-76
2021/04/23 08:51:11;;;;;;;6.13;3.95;;;9.50;92.70;;;;;;5072306;28;20382;-77
2021/04/23 08:53:37;;;;;;;;;;;9.60;91.20;;;;;;5073448;28;20757;-78
2021/04/23 08:56:09;;;;;;;8.13;4.63;;;9.60;91.80;;;;;;5071954;28;20353;-78
2021/04/23 08:58:35;;;;;;;8.68;4.93;;;9.60;91.00;;;;;;5055193;28;20041;-76
2021/04/23 09:01:00;;;;;;;11.23;4.75;;;9.40;90.80;;;;;;5072026;28;20040;-79
2021/04/23 09:03:27;;;;;;;7.38;4.57;;;9.30;90.40;;;;;;5055005;28;20048;-75
2021/04/23 09:06:12;;;;;;;11.32;3.97;;;9.40;90.90;;;;;;5054686;28;20055;-75
2021/04/23 09:08:52;;;;;;;6.97;3.88;;;9.60;91.20;;;;;;5072142;28;20102;-76
2021/04/23 09:11:21;;;;;;;7.85;4.40;;;9.80;90.30;;;;;;5071071;28;20415;-77
2021/04/23 09:13:55;;;;;;;9.98;4.18;;;9.90;90.10;;;;;;5054007;28;20040;-77
2021/04/23 09:16:49;;;;;;;6.45;3.90;;;10.20;89.30;;;;;;5054682;28;20060;-78
2021/04/23 09:19:15;;;;;;;7.35;4.07;;;10.20;88.50;;;;;;5059730;28;20060;-76
2021/04/23 09:21:46;;;;;;;9.40;4.22;;;10.30;87.80;;;;;;5072425;28;20045;-75
2021/04/23 09:24:18;;;;;;;7.07;4.07;;;10.20;86.80;;;;;;5071488;28;20542;-76
2021/04/23 09:26:43;;;;;;;7.78;4.13;;;10.00;85.90;;;;;;5071391;28;20032;-77
2021/04/23 09:29:22;;;;;;;8.20;3.88;;;9.80;86.90;;;;;;5036559;28;20077;-77
2021/04/23 09:31:48;;;;;;;8.93;4.18;;;10.00;86.00;;;;;;5054033;28;20045;-77
2021/04/23 09:34:17;;;;;;;8.38;3.58;;;10.10;86.40;;;;;;5054324;28;20094;-77
2021/04/23 09:36:45;;;;;;;11.38;4.13;;;10.30;85.90;;;;;;5071795;28;20044;-78
2021/04/23 09:39:14;;;;;;;8.00;3.83;;;10.50;85.90;;;;;;5052891;28;20119;-77
2021/04/23 09:41:47;;;;;;;7.55;3.83;;;10.70;81.70;;;;;;5070968;28;20123;-79
2021/04/23 09:44:31;;;;;;;8.73;4.25;;;10.60;82.90;;;;;;5071407;28;20044;-78
2021/04/23 09:47:11;;;;;;;9.05;4.55;;;10.60;82.30;;;;;;5071524;28;20055;-79
2021/04/23 09:49:38;;;;;;;11.60;4.85;;;10.70;82.80;;;;;;5070517;28;20040;-76
2021/04/23 09:52:07;;;;;;;7.32;4.03;;;10.70;81.60;;;;;;5070073;28;20148;-76
2021/04/23 09:54:34;;;;;;;8.38;3.92;;;10.70;80.60;;;;;;5053084;28;20090;-78
2021/04/23 09:57:02;;;;;;;8.80;4.25;;;10.70;80.80;;;;;;5070769;28;20127;-75
2021/04/23 09:59:29;;;;;;;16.05;6.07;;;10.90;81.60;;;;;;5053391;28;20087;-76
2021/04/23 10:01:56;;;;;;;7.57;4.25;;;10.80;81.90;;;;;;5053632;28;20151;-77
2021/04/23 10:04:34;;;;;;;10.73;4.95;;;10.60;81.40;;;;;;5071448;28;20127;-77
2021/04/23 10:07:10;;;;;;;7.85;4.18;;;10.50;81.90;;;;;;5046191;28;20363;-76
2021/04/23 10:09:52;;;;;;;7.63;4.60;;;10.50;82.40;;;;;;5070922;28;20127;-77
2021/04/23 10:12:35;;;;;;;9.57;4.13;;;10.60;82.50;;;;;;5071412;28;20044;-79
2021/04/23 10:15:27;;;;;;;8.30;4.00;;;10.60;81.30;;;;;;5053154;28;20115;-78
2021/04/23 10:17:57;;;;;;;10.15;4.72;;;10.60;82.30;;;;;;5067118;28;20136;-79
2021/04/23 10:20:29;;;;;;;8.55;4.60;;;10.80;82.10;;;;;;5071526;28;20528;-75
2021/04/23 10:22:57;;;;;;;10.20;4.68;;;10.80;80.70;;;;;;5060166;28;20116;-75
2021/04/23 10:25:24;;;;;;;10.07;4.75;;;10.70;81.00;;;;;;5053212;28;20040;-76
2021/04/23 10:27:52;;;;;;;8.27;5.18;;;10.80;79.90;;;;;;5041678;28;20068;-76
2021/04/23 10:30:20;;;;;;;7.60;4.32;;;11.00;79.70;;;;;;5050823;28;20045;-76
2021/04/23 10:32:51;;;;;;;10.75;4.35;;;11.00;79.80;;;;;;5071019;28;20038;-78
2021/04/23 10:35:18;;;;;;;8.15;4.13;;;11.00;80.00;;;;;;5052887;28;20043;-78
2021/04/23 10:37:47;;;;;;;8.05;4.43;;;10.90;78.40;;;;;;5071241;28;20040;-75
2021/04/23 10:40:17;;;;;;;8.75;4.82;;;11.00;74.70;;;;;;5051777;28;20032;-75
2021/04/23 10:42:48;;;;;;;7.20;4.20;;;11.00;76.40;;;;;;5071291;28;20127;-77
2021/04/23 10:45:42;;;;;;;7.40;4.00;;;11.00;77.90;;;;;;5070139;28;20036;-79
2021/04/23 10:48:14;;;;;;;7.97;3.92;;;11.10;77.50;;;;;;5068929;28;20056;-75
2021/04/23 10:50:44;;;;;;;7.18;3.60;;;11.20;76.30;;;;;;5071204;28;20059;-76
2021/04/23 10:53:12;;;;;;;8.15;3.78;;;11.20;74.00;;;;;;5051601;28;20071;-75
2021/04/23 10:55:49;;;;;;;9.32;4.07;;;11.30;71.20;;;;;;5070796;28;20430;-76
2021/04/23 10:58:16;;;;;;;;;;;11.20;74.00;;;;;;5070334;28;20044;-76
2021/04/23 11:00:46;;;;;;;6.00;3.53;;;11.20;73.50;;;;;;5070443;28;20559;-76
2021/04/23 11:03:33;;;;;;;7.07;3.38;;;11.20;69.70;;;;;;5052261;28;20044;-78
2021/04/23 11:06:25;;;;;;;7.50;3.50;;;11.30;68.80;;;;;;5068656;28;20038;-76
2021/04/23 11:09:01;;;;;;;8.85;3.90;;;11.20;68.30;;;;;;5050637;28;20044;-77
2021/04/23 11:11:37;;;;;;;6.95;3.83;;;11.10;69.00;;;;;;5049159;28;20037;-76
2021/04/23 11:14:23;;;;;;;7.53;3.90;;;11.10;70.60;;;;;;5067001;28;20036;-76
2021/04/23 11:16:51;;;;;;;8.25;3.95;;;11.20;67.80;;;;;;5070812;28;20043;-76
2021/04/23 11:19:20;;;;;;;7.57;3.72;;;11.20;67.30;;;;;;5038382;28;20049;-77
2021/04/23 11:21:51;;;;;;;10.00;3.72;;;11.40;67.80;;;;;;5053987;28;20049;-77
2021/04/23 11:24:28;;;;;;;7.93;3.65;;;11.50;68.60;;;;;;5070376;28;20120;-77
2021/04/23 11:26:54;;;;;;;;;;;11.60;68.60;;;;;;5053516;28;20033;-78
2021/04/23 11:29:50;;;;;;;7.35;3.80;;;11.60;68.30;;;;;;5086747;28;20395;-77
2021/04/23 11:32:30;;;;;;;8.90;4.03;;;11.50;69.20;;;;;;5051822;28;20390;-76
2021/04/23 11:35:16;;;;;;;8.90;3.90;;;11.50;69.80;;;;;;5070063;28;20474;-77
2021/04/23 11:37:42;;;;;;;7.00;3.95;;;11.60;69.50;;;;;;5052762;28;20044;-78
2021/04/23 11:40:14;;;;;;;6.15;3.70;;;11.50;67.10;;;;;;5051229;28;20052;-76
2021/04/23 11:42:52;;;;;;;8.85;3.88;;;11.50;67.90;;;;;;5049500;28;20370;-77
2021/04/23 11:45:30;;;;;;;5.70;3.47;;;11.50;68.10;;;;;;5052101;28;20052;-75
2021/04/23 11:48:10;;;;;;;6.70;3.25;;;11.60;66.10;;;;;;5051810;28;20497;-79
2021/04/23 11:50:43;;;;;;;9.00;3.78;;;11.60;65.30;;;;;;5052497;28;20040;-78
2021/04/23 11:53:11;;;;;;;7.15;3.80;;;11.70;65.90;;;;;;5048024;28;20095;-77
2021/04/23 11:55:43;;;;;;;6.75;3.28;;;11.80;66.40;;;;;;5063590;28;20060;-77
2021/04/23 11:58:13;;;;;;;7.70;3.30;;;11.90;64.70;;;;;;5051906;28;20063;-78
2021/04/23 12:00:52;;;;;;;6.47;4.05;;;11.90;63.30;;;;;;5052072;28;20392;-77
2021/04/23 12:03:20;;;;;;;11.52;4.22;;;11.90;64.60;;;;;;5052114;28;20036;-78
2021/04/23 12:05:54;;;;;;;7.97;3.60;;;11.80;65.40;;;;;;5070412;28;20367;-78
2021/04/23 12:08:35;;;;;;;6.55;3.42;;;11.50;65.10;;;;;;5051207;28;20036;-78
2021/04/23 12:11:07;;;;;;;5.57;3.10;;;11.40;65.50;;;;;;5068961;28;20045;-78
2021/04/23 12:13:39;;;;;;;8.32;4.18;;;11.60;60.70;;;;;;5074709;28;20296;-78
2021/04/23 12:16:11;;;;;;;5.95;3.10;;;11.70;61.60;;;;;;5073325;28;20454;-79
2021/04/23 12:18:49;;;;;;;5.50;3.08;;;11.70;62.10;;;;;;5073884;28;20045;-78
2021/04/23 12:21:15;;;;;;;6.88;3.58;;;11.80;62.20;;;;;;5055917;28;20059;-77
2021/04/23 12:23:43;;;;;;;5.35;3.22;;;12.00;63.50;;;;;;5056985;28;20167;-79
2021/04/23 12:26:12;;;;;;;9.38;3.55;;;12.20;62.90;;;;;;5055078;28;20414;-78
2021/04/23 12:28:47;;;;;;;5.40;3.05;;;12.30;62.90;;;;;;5073150;28;20032;-77
2021/04/23 12:31:18;;;;;;;6.57;3.47;;;12.10;62.80;;;;;;5066169;28;20033;-78
2021/04/23 12:33:48;;;;;;;6.20;3.17;;;12.20;62.70;;;;;;5076035;28;20056;-75
2021/04/23 12:36:28;;;;;;;6.53;2.97;;;12.10;61.50;;;;;;5055357;28;20124;-76
2021/04/23 12:39:05;;;;;;;7.47;3.28;;;12.00;61.20;;;;;;5055404;28;20547;-76
2021/04/23 12:41:37;;;;;;;5.55;3.53;;;12.20;61.30;;;;;;5054972;28;20098;-77
2021/04/23 12:44:06;;;;;;;9.57;3.28;;;12.30;60.50;;;;;;5073012;28;20091;-77
2021/04/23 12:46:42;;;;;;;4.75;3.05;;;12.30;60.60;;;;;;5072911;28;20112;-77
2021/04/23 12:49:18;;;;;;;5.53;2.92;;;12.40;60.30;;;;;;5072793;28;20126;-76
2021/04/23 12:51:43;;;;;;;6.63;3.00;;;12.60;59.50;;;;;;5072651;28;20493;-77
2021/04/23 12:54:11;;;;;;;7.38;3.20;;;12.60;59.70;;;;;;5072168;28;20048;-77
2021/04/23 12:56:37;;;;;;;6.95;3.30;;;12.60;59.10;;;;;;5072696;28;20056;-78
2021/04/23 12:59:04;;;;;;;6.38;3.13;;;12.70;58.20;;;;;;5072288;28;20119;-78
2021/04/23 13:01:31;;;;;;;7.90;3.33;;;12.70;58.80;;;;;;5038647;28;20036;-78
2021/04/23 13:04:13;;;;;;;8.10;2.95;;;12.60;57.60;;;;;;5038498;28;20507;-77